Fritzlar, Germany

7:51 AM CEST on July 29, 2014 (GMT +0200)
Fritzlar Army (ETHF) Elev 594 ft | 51.12 °N, 9.28 °E | Change Station

Current weather conditions updated 31 minutes ago

Light Rain
Light Rain
64 °F
Feels Like 64 °F
N
6
Wind Variable Wind from NW

Today is forecast to be Cooler than yesterday. Thunderstorms.

Today
High -- | Low -- °F
--% Chance of Precip.
Yesterday
High -- | Low -- °F
Precip. -- in
5:43 AM 9:14 PM
Waxing Crescent, 5% visible
Pressure 29.83 in
Visibility 3.7 miles
Clouds Few 500 ft
Mostly Cloudy 11000 ft
Dew Point 63 °F
Humidity 94%
Rainfall 0.00 in
Snow Depth Not available.
UV 0 out of 12
Pollen Not available.
Air Quality Not available.
Flu Activity Not available.
METAR ETHF 290520Z 31005KT 6000 -RA FEW005 BKN110 18/17 Q1010 WHT WHT

More Conditions Fewer Conditions

Pressure 29.83 in
Visibility 3.7 miles
Clouds Few 500 ft
Mostly Cloudy 11000 ft
Dew Point 63 °F
Humidity 94%
Rainfall 0.00 in
Snow Depth Not available.
UV 0 out of 12
Pollen Not available.
Air Quality Not available.
Flu Activity Not available.
METAR ETHF 290520Z 31005KT 6000 -RA FEW005 BKN110 18/17 Q1010 WHT WHT

More Conditions Fewer Conditions

10-Day Weather Forecast

Almanac

Astronomy

Jul. 29, 2014 Rise Set
Actual Time 5:43 AM CEST 9:14 PM CEST
Civil Twilight 5:02 AM CEST 9:55 PM CEST
Nautical Twilight 4:07 AM CEST 10:49 PM CEST
Astronomical Twilight 2:47 AM CEST 12:07 AM CEST
Moon 8:27 AM CEST 9:52 PM CEST
Length of Visible Light 16h 52m
Length of Day
15h 31m
Tomorrow will be 2m 59s shorter.
Waxing Crescent, 5% of the Moon is Illuminated
Today
Waxing Crescent
Aug 3
First Quarter
Aug 10
Full
Aug 17
Last Quarter
Aug 25
New

Yesterday's Extremes

Country Highs Country Lows

Community

WunderPhotos

Upload Photos

1,738,641 photos uploaded!

Nearby

Snow Depth

Not available.

Earthquake Activity

City Distance Mag. Time & Date
No recent earthquake activity has been reported nearby.
Minimum magnitude displayed is 2.5.

Coastal Water Temperatures

Place Temperature
No Stations Reporting

Nearby Weather Stations

Station Location Temp. Dew Point Humidity Wind Precip. Elev Updated Type
Melsungen am Galgenberg, Melsungen 66.9 °F 63 °F 88% NNE  at  1.3 mph 0.00 in / hr 814 ft 7:51 AM CEST Rapid Fire
Kassel Bettenhausen, Kassel 67.2 °F 65 °F 92% North  at  0.0 mph 0.00 in / hr 466 ft 7:51 AM CEST Normal
Heinebach, Alheim 63.7 °F 62 °F 95% NW  at  0.7 mph 0.00 in / hr 623 ft 7:00 AM CEST Normal
Dalwigksthal 64.6 °F 60 °F 86% East  at  0.0 mph 0.00 in / hr 1102 ft 7:45 AM CEST Normal
Bebra, Bebraer Altstadt, Bebra 65.1 °F 64 °F 95% West  at  0.0 mph 0.01 in / hr 650 ft 7:51 AM CEST Normal

Show More Stations Show Fewer Stations